PWSweather.com
Personal Weather Stations
Station Observations
KILMORRI1
Goose Lake, Morris, IL 60450

Goose LakeMorris, IL 60450

Lat: 41.34, Lon: -88.3

Elevation: 523

Station Type:

Latest ConditionsUpdated 3:10:05 AM CST Friday, Feb 22, 2019
Currently Today's Max Today's Min Today's Average
Temperature 22.3°F-5.4°C 25.1°F-3.8°C 22.3°F-5.4°C 24.0°F-4.4°C
Dew Point 18.5°F-7.5°C 20.8°F-6.2°C 18.5°F-7.5°C 19.8°F-6.8°C
Winds 1.2 mph NNW1.9 kmh NNW 2.3 mph -3.7 kmh - - 1.0 mph 1.6 kmh
Wind Gusts 1.2 mph1.9 kmh 3.5 mph5.6 kmh - -
Humidity 85% 85% 83% 84%
Pressure 30.41 in1029.8 mb 30.42 in1030.1 mb 30.35 in1027.8 mb -
Hour Temp Dew Point Humidity Winds Wind Gusts Pressure Precip Precip Rate Daily Precip Total
03:10 AM 22.3°F-5.4°C 18.5°F-7.5°C 85% 1.2 mph NNW1.9 kmh NNW 1.2 mph1.9 kmh 30.41 in1029.8 mb - 0.00 in0.0 mm 0.00 in0.0 mm
03:00 AM 22.4°F-5.3°C 18.6°F-7.4°C 85% 1.2 mph N1.9 kmh N 2.3 mph3.7 kmh 30.42 in1030.1 mb - 0.00 in0.0 mm 0.00 in0.0 mm
02:50 AM 22.4°F-5.3°C 18.6°F-7.4°C 85% 1.2 mph N1.9 kmh N 1.2 mph1.9 kmh 30.42 in1030.1 mb - 0.00 in0.0 mm 0.00 in0.0 mm
02:40 AM 22.8°F-5.1°C 18.7°F-7.4°C 84% Calm Calm 1.2 mph1.9 kmh 30.41 in1029.8 mb - 0.00 in0.0 mm 0.00 in0.0 mm
02:30 AM 23.2°F-4.9°C 19.1°F-7.2°C 84% Calm Calm 1.2 mph1.9 kmh 30.41 in1029.8 mb - 0.00 in0.0 mm 0.00 in0.0 mm
02:20 AM 23.6°F-4.7°C 19.5°F-6.9°C 84% 1.2 mph N1.9 kmh N 1.2 mph1.9 kmh 30.41 in1029.8 mb - 0.00 in0.0 mm 0.00 in0.0 mm
02:10 AM 23.8°F-4.6°C 19.4°F-7.0°C 83% 1.2 mph N1.9 kmh N 2.3 mph3.7 kmh 30.41 in1029.8 mb - 0.00 in0.0 mm 0.00 in0.0 mm
02:00 AM 24.0°F-4.4°C 19.6°F-6.9°C 83% 1.2 mph N1.9 kmh N 2.3 mph3.7 kmh 30.39 in1029.1 mb - 0.00 in0.0 mm 0.00 in0.0 mm
01:50 AM 24.2°F-4.3°C 20.1°F-6.6°C 84% Calm Calm 1.2 mph1.9 kmh 30.40 in1029.5 mb - 0.00 in0.0 mm 0.00 in0.0 mm
01:40 AM 24.5°F-4.2°C 20.1°F-6.6°C 83% 1.2 mph N1.9 kmh N 2.3 mph3.7 kmh 30.40 in1029.5 mb - 0.00 in0.0 mm 0.00 in0.0 mm
01:30 AM 24.6°F-4.1°C 20.2°F-6.6°C 83% 1.2 mph N1.9 kmh N 1.2 mph1.9 kmh 30.40 in1029.5 mb - 0.00 in0.0 mm 0.00 in0.0 mm
01:20 AM 24.8°F-4.0°C 20.3°F-6.5°C 83% 1.2 mph NNW1.9 kmh NNW 2.3 mph3.7 kmh 30.39 in1029.1 mb - 0.00 in0.0 mm 0.00 in0.0 mm
01:10 AM 24.9°F-3.9°C 20.5°F-6.4°C 83% 1.2 mph NNW1.9 kmh NNW 3.5 mph5.6 kmh 30.39 in1029.1 mb - 0.00 in0.0 mm 0.00 in0.0 mm
01:00 AM 25.1°F-3.8°C 20.7°F-6.3°C 83% 1.2 mph NW1.9 kmh NW 2.3 mph3.7 kmh 30.39 in1029.1 mb - 0.00 in0.0 mm 0.00 in0.0 mm
12:50 AM 24.9°F-3.9°C 20.8°F-6.2°C 84% 1.2 mph NW1.9 kmh NW 3.5 mph5.6 kmh 30.39 in1029.1 mb - 0.00 in0.0 mm 0.00 in0.0 mm
12:40 AM 24.6°F-4.1°C 20.5°F-6.4°C 84% 2.3 mph NW3.7 kmh NW 3.5 mph5.6 kmh 30.39 in1029.1 mb - 0.00 in0.0 mm 0.00 in0.0 mm
12:30 AM 24.5°F-4.2°C 20.4°F-6.4°C 84% 1.2 mph NW1.9 kmh NW 3.5 mph5.6 kmh 30.37 in1028.4 mb - 0.00 in0.0 mm 0.00 in0.0 mm
12:20 AM 24.8°F-4.0°C 20.6°F-6.3°C 84% Calm Calm 1.2 mph1.9 kmh 30.37 in1028.4 mb - 0.00 in0.0 mm 0.00 in0.0 mm
12:10 AM 24.8°F-4.0°C 20.4°F-6.4°C 83% 1.2 mph NW1.9 kmh NW 2.3 mph3.7 kmh 30.36 in1028.1 mb - 0.00 in0.0 mm 0.00 in0.0 mm
12:00 AM 24.7°F-4.1°C 20.3°F-6.5°C 83% 1.2 mph NW1.9 kmh NW 2.3 mph3.7 kmh 30.35 in1027.8 mb - 0.00 in0.0 mm 0.00 in0.0 mm